createdAt,value
2019-05-13T00:00:34.160Z,6.80
2019-05-13T00:03:03.886Z,6.90
2019-05-13T00:05:33.831Z,6.90
2019-05-13T00:08:03.565Z,7.10
2019-05-13T00:10:34.726Z,7.00
2019-05-13T00:13:04.394Z,7.10
2019-05-13T00:15:34.090Z,7.20
2019-05-13T00:18:03.912Z,7.40
2019-05-13T00:20:33.828Z,7.50
2019-05-13T00:23:03.835Z,7.50
2019-05-13T00:25:33.896Z,7.60
2019-05-13T00:28:04.070Z,7.50
2019-05-13T00:30:34.174Z,7.50
2019-05-13T00:33:03.853Z,7.60
2019-05-13T00:35:33.931Z,7.60
2019-05-13T00:38:03.786Z,7.60
2019-05-13T00:40:33.683Z,7.60
2019-05-13T00:43:03.804Z,7.50
2019-05-13T00:45:33.829Z,7.40
2019-05-13T00:48:04.548Z,7.30
2019-05-13T00:50:33.974Z,7.50
2019-05-13T00:53:04.280Z,7.50
2019-05-13T00:55:34.456Z,7.50
2019-05-13T00:58:04.689Z,7.40
2019-05-13T01:00:34.175Z,7.30
2019-05-13T01:03:04.102Z,7.10
2019-05-13T01:05:34.079Z,7.10
2019-05-13T01:08:04.291Z,7.00
2019-05-13T01:10:34.570Z,6.90
2019-05-13T01:13:04.694Z,6.90
2019-05-13T01:15:34.317Z,6.80
2019-05-13T01:18:04.022Z,6.80
2019-05-13T01:20:34.382Z,6.70
2019-05-13T01:23:03.570Z,6.80
2019-05-13T01:25:34.030Z,7.10
2019-05-13T01:28:04.523Z,7.20
2019-05-13T01:30:34.526Z,7.30
2019-05-13T01:33:04.437Z,7.20
2019-05-13T01:35:34.252Z,7.00
2019-05-13T01:38:04.609Z,7.20
2019-05-13T01:40:34.764Z,7.20
2019-05-13T01:43:03.908Z,7.20
2019-05-13T01:45:33.743Z,7.30
2019-05-13T01:48:07.503Z,7.30
2019-05-13T01:50:34.039Z,7.10
2019-05-13T01:53:04.239Z,7.30
2019-05-13T01:55:33.852Z,7.30
2019-05-13T01:58:04.328Z,7.30
2019-05-13T02:00:35.234Z,7.20
2019-05-13T02:03:04.005Z,7.00
2019-05-13T02:05:33.918Z,7.00
2019-05-13T02:08:04.346Z,7.20
2019-05-13T02:10:54.465Z,7.20
2019-05-13T02:13:24.653Z,7.10
2019-05-13T02:15:55.241Z,7.00
2019-05-13T02:18:24.699Z,7.20
2019-05-13T02:20:55.241Z,7.20
2019-05-13T02:23:24.090Z,7.20
2019-05-13T02:25:54.205Z,7.00
2019-05-13T02:28:24.859Z,7.00
2019-05-13T02:30:56.125Z,7.00
2019-05-13T02:33:24.076Z,7.10
2019-05-13T02:35:53.343Z,7.20
2019-05-13T02:38:28.785Z,7.30
2019-05-13T02:40:53.354Z,7.40
2019-05-13T02:43:23.663Z,7.30
2019-05-13T02:45:53.877Z,7.20
2019-05-13T02:48:23.818Z,7.40
2019-05-13T02:50:53.994Z,7.10
2019-05-13T02:53:24.111Z,6.80
2019-05-13T02:55:53.538Z,6.70
2019-05-13T02:58:24.280Z,6.60
2019-05-13T03:00:53.724Z,6.70
2019-05-13T03:03:23.296Z,6.60
2019-05-13T03:05:53.346Z,6.70
2019-05-13T03:08:38.671Z,6.70
2019-05-13T03:10:53.740Z,6.60
2019-05-13T03:13:23.608Z,6.70
2019-05-13T03:16:02.790Z,6.60
2019-05-13T03:18:33.374Z,6.70
2019-05-13T03:21:03.334Z,6.70
2019-05-13T03:23:32.804Z,6.70
2019-05-13T03:26:02.901Z,6.60
2019-05-13T03:28:33.564Z,6.60
2019-05-13T03:31:06.238Z,6.50
2019-05-13T03:33:36.974Z,6.50
2019-05-13T03:36:06.813Z,6.60
2019-05-13T03:38:32.997Z,6.50
2019-05-13T03:41:03.313Z,6.50
2019-05-13T03:43:33.251Z,6.60
2019-05-13T03:46:03.855Z,6.70
2019-05-13T03:48:34.948Z,6.60
2019-05-13T03:51:04.534Z,6.50
2019-05-13T03:53:33.104Z,6.40
2019-05-13T03:56:02.873Z,6.40
2019-05-13T03:58:32.533Z,6.50
2019-05-13T04:01:02.744Z,6.50
2019-05-13T04:03:33.139Z,6.50
2019-05-13T04:06:03.529Z,6.50
2019-05-13T04:08:32.758Z,6.80
2019-05-13T04:11:02.945Z,7.00
2019-05-13T04:13:33.545Z,7.10
2019-05-13T04:16:03.875Z,7.10
2019-05-13T04:18:32.923Z,6.90
2019-05-13T04:21:02.713Z,7.10
2019-05-13T04:23:32.517Z,7.10
2019-05-13T04:26:03.068Z,6.90
2019-05-13T04:28:32.974Z,6.80
2019-05-13T04:31:03.540Z,6.80
2019-05-13T04:33:33.684Z,6.80
2019-05-13T04:36:02.762Z,6.80
2019-05-13T04:38:33.067Z,6.80
2019-05-13T04:41:03.397Z,7.10
2019-05-13T04:43:34.735Z,7.30
2019-05-13T04:46:02.782Z,7.40
2019-05-13T04:48:33.997Z,7.60
2019-05-13T04:51:02.992Z,7.40
2019-05-13T04:53:33.353Z,7.20
2019-05-13T04:56:03.342Z,7.00
2019-05-13T04:58:32.411Z,7.20
2019-05-13T05:01:14.135Z,7.30
2019-05-13T05:04:03.416Z,7.40
2019-05-13T05:07:07.467Z,7.30
2019-05-13T05:10:23.388Z,7.10
2019-05-13T05:12:35.401Z,7.20
2019-05-13T05:15:24.530Z,7.50
2019-05-13T05:18:29.291Z,7.80
2019-05-13T05:21:14.271Z,7.60
2019-05-13T05:24:02.110Z,8.00
2019-05-13T05:27:06.673Z,8.20
2019-05-13T05:29:43.840Z,8.20
2019-05-13T05:32:24.111Z,8.30
2019-05-13T05:35:15.040Z,8.60
2019-05-13T05:37:49.323Z,8.80
2019-05-13T05:40:28.964Z,8.80
2019-05-13T05:42:52.227Z,9.00
2019-05-13T05:45:22.125Z,9.10
2019-05-13T05:47:53.877Z,9.10
2019-05-13T05:50:22.996Z,9.30
2019-05-13T05:52:56.627Z,9.40
2019-05-13T05:55:26.416Z,9.40
2019-05-13T05:57:56.272Z,9.40
2019-05-13T06:00:24.806Z,9.50
2019-05-13T06:02:56.329Z,9.70
2019-05-13T06:05:26.225Z,9.70
2019-05-13T06:07:54.744Z,9.40
2019-05-13T06:10:23.333Z,9.60
2019-05-13T06:12:52.370Z,9.40
2019-05-13T06:15:22.521Z,9.40
2019-05-13T06:17:51.784Z,9.50
2019-05-13T06:20:21.175Z,9.70
2019-05-13T06:22:51.607Z,9.80
2019-05-13T06:25:23.596Z,9.40
2019-05-13T06:27:51.639Z,9.50
2019-05-13T06:30:21.778Z,9.80
2019-05-13T06:32:52.491Z,9.90
2019-05-13T06:35:21.892Z,9.50
2019-05-13T06:37:52.048Z,9.50
2019-05-13T06:40:21.459Z,9.70
2019-05-13T06:42:52.111Z,9.70
2019-05-13T06:45:21.666Z,9.70
2019-05-13T06:47:52.174Z,9.70
2019-05-13T06:50:21.920Z,9.80
2019-05-13T06:52:51.429Z,10.00
2019-05-13T06:55:21.289Z,9.90
2019-05-13T06:57:51.702Z,10.00
2019-05-13T07:00:21.552Z,10.10
2019-05-13T07:02:51.726Z,10.10
2019-05-13T07:05:22.747Z,10.40
2019-05-13T07:07:51.307Z,10.30
2019-05-13T07:10:21.731Z,10.40
2019-05-13T07:12:51.945Z,10.50
2019-05-13T07:15:22.388Z,10.50
2019-05-13T07:17:52.008Z,10.30
2019-05-13T07:20:22.791Z,10.50
2019-05-13T07:22:53.127Z,10.70
2019-05-13T07:25:22.269Z,10.80
2019-05-13T07:27:51.517Z,10.70
2019-05-13T07:30:23.263Z,10.50
2019-05-13T07:32:52.386Z,10.60
2019-05-13T07:35:22.730Z,10.50
2019-05-13T07:37:51.816Z,10.40
2019-05-13T07:40:22.203Z,10.40
2019-05-13T07:42:52.234Z,10.50
2019-05-13T07:45:21.361Z,10.60
2019-05-13T07:47:52.072Z,10.90
2019-05-13T07:50:21.775Z,11.00
2019-05-13T07:52:51.473Z,10.70
2019-05-13T07:55:22.249Z,10.50
2019-05-13T07:57:51.522Z,10.70
2019-05-13T08:00:22.578Z,10.70
2019-05-13T08:02:52.316Z,10.90
2019-05-13T08:05:22.343Z,11.10
2019-05-13T08:07:51.562Z,10.90
2019-05-13T08:10:21.939Z,10.80
2019-05-13T08:12:51.676Z,11.20
2019-05-13T08:15:22.344Z,11.40
2019-05-13T08:17:52.448Z,11.60
2019-05-13T08:20:22.141Z,11.70
2019-05-13T08:22:52.023Z,11.60
2019-05-13T08:25:22.261Z,11.80
2019-05-13T08:27:51.526Z,11.50
2019-05-13T08:30:22.526Z,11.60
2019-05-13T08:32:52.304Z,11.80
2019-05-13T08:35:22.596Z,11.70
2019-05-13T08:37:52.048Z,11.60
2019-05-13T08:40:23.310Z,11.70
2019-05-13T08:42:52.003Z,12.10
2019-05-13T08:45:22.349Z,12.40
2019-05-13T08:47:51.289Z,12.40
2019-05-13T08:50:21.999Z,12.00
2019-05-13T08:52:51.209Z,12.10
2019-05-13T08:55:21.431Z,12.00
2019-05-13T08:57:53.172Z,11.80
2019-05-13T09:00:35.733Z,11.50
2019-05-13T09:03:06.295Z,11.60
2019-05-13T09:05:34.426Z,12.00
2019-05-13T09:08:02.949Z,12.30
2019-05-13T09:10:31.902Z,12.40
2019-05-13T09:13:01.895Z,12.00
2019-05-13T09:15:31.616Z,12.30
2019-05-13T09:33:04.792Z,12.40
2019-05-13T09:35:33.241Z,12.80
2019-05-13T09:40:31.928Z,13.20
2019-05-13T09:43:02.421Z,13.40
2019-05-13T09:45:32.171Z,13.70
2019-05-13T09:48:01.641Z,13.50
2019-05-13T09:50:35.785Z,13.30
2019-05-13T09:53:02.733Z,13.20
2019-05-13T09:55:32.577Z,12.80
2019-05-13T09:58:03.680Z,12.70
2019-05-13T10:00:36.305Z,13.00
2019-05-13T10:03:04.980Z,13.40
2019-05-13T10:05:37.241Z,13.50
2019-05-13T10:08:05.694Z,13.40
2019-05-13T10:10:34.230Z,13.00
2019-05-13T10:13:09.287Z,13.20
2019-05-13T10:15:32.978Z,13.20
2019-05-13T10:18:03.036Z,13.30
2019-05-13T10:20:52.278Z,13.30
2019-05-13T10:23:22.036Z,13.40
2019-05-13T10:25:53.801Z,13.10
2019-05-13T10:28:22.790Z,13.30
2019-05-13T10:30:53.106Z,13.30
2019-05-13T10:33:22.324Z,13.20
2019-05-13T10:35:52.507Z,13.10
2019-05-13T10:38:27.045Z,12.70
2019-05-13T10:40:52.631Z,12.60
2019-05-13T10:43:30.991Z,12.80
2019-05-13T10:45:52.225Z,12.80
2019-05-13T10:48:22.060Z,12.80
2019-05-13T10:50:52.987Z,12.50
2019-05-13T10:53:22.136Z,12.70
2019-05-13T10:55:57.241Z,12.90
2019-05-13T10:58:25.788Z,12.90
2019-05-13T11:00:55.255Z,12.80
2019-05-13T11:03:23.771Z,13.00
2019-05-13T11:05:52.958Z,13.10
2019-05-13T11:08:22.473Z,13.20
2019-05-13T11:10:53.254Z,13.40
2019-05-13T11:13:23.154Z,13.30
2019-05-13T11:15:57.785Z,13.50
2019-05-13T11:18:24.440Z,13.50
2019-05-13T11:20:53.715Z,13.60
2019-05-13T11:23:23.714Z,13.50
2019-05-13T11:25:52.526Z,13.70
2019-05-13T11:28:21.172Z,14.00
2019-05-13T11:30:51.974Z,14.10
2019-05-13T11:33:22.374Z,14.90
2019-05-13T11:35:52.387Z,18.10
2019-05-13T11:38:22.119Z,21.10
2019-05-13T11:40:54.516Z,22.90
2019-05-13T11:43:27.877Z,24.60
2019-05-13T11:45:53.156Z,23.10
2019-05-13T11:48:23.569Z,21.70
2019-05-13T11:50:54.078Z,23.40
2019-05-13T11:53:37.988Z,20.60
2019-05-13T11:55:52.479Z,19.20
2019-05-13T11:58:26.878Z,18.00
2019-05-13T12:01:01.833Z,17.20
2019-05-13T12:03:32.158Z,15.90
2019-05-13T12:06:02.232Z,16.00
2019-05-13T12:08:33.109Z,15.80
2019-05-13T12:10:59.837Z,15.10
2019-05-13T12:13:28.286Z,15.10
2019-05-13T12:15:56.820Z,14.90
2019-05-13T12:18:25.357Z,14.60
2019-05-13T12:20:54.401Z,15.00
2019-05-13T12:23:22.997Z,15.00
2019-05-13T12:25:52.910Z,15.10
2019-05-13T12:28:23.579Z,15.60
2019-05-13T12:30:53.117Z,16.10
2019-05-13T12:33:22.815Z,16.20
2019-05-13T12:35:53.059Z,16.20
2019-05-13T12:38:23.849Z,17.20
2019-05-13T12:40:53.112Z,19.70
2019-05-13T12:43:24.111Z,21.00
2019-05-13T12:45:53.704Z,19.80
2019-05-13T12:50:53.896Z,23.10
2019-05-13T12:53:22.646Z,23.40
2019-05-13T12:58:23.787Z,21.90
2019-05-13T13:00:53.786Z,19.50
2019-05-13T13:03:23.558Z,18.40
2019-05-13T13:05:52.795Z,17.50
2019-05-13T13:08:38.484Z,17.60
2019-05-13T13:10:53.394Z,17.20
2019-05-13T13:13:23.065Z,17.40
2019-05-13T13:15:52.958Z,17.70
2019-05-13T13:18:24.540Z,17.50
2019-05-13T13:21:00.388Z,17.10
2019-05-13T13:23:23.744Z,16.50
2019-05-13T13:25:56.835Z,16.00
2019-05-13T13:28:24.221Z,15.90
2019-05-13T13:30:55.071Z,15.80
2019-05-13T13:33:24.825Z,15.90
2019-05-13T13:35:58.889Z,15.80
2019-05-13T13:38:25.183Z,17.30
2019-05-13T13:40:54.077Z,17.20
2019-05-13T13:43:25.017Z,16.90
2019-05-13T13:46:07.357Z,16.50
2019-05-13T13:48:25.474Z,16.30
2019-05-13T13:50:55.888Z,17.20
2019-05-13T13:53:25.909Z,17.50
2019-05-13T13:55:56.063Z,18.60
2019-05-13T13:58:25.526Z,19.30
2019-05-13T14:01:05.622Z,20.70
2019-05-13T14:03:27.216Z,20.70
2019-05-13T14:05:55.748Z,20.50
2019-05-13T14:06:25.163Z,12.90
2019-05-13T14:07:09.176Z,20.90
2019-05-13T14:07:13.475Z,23.20
2019-05-13T14:08:24.526Z,21.10
2019-05-13T14:10:53.022Z,20.80
2019-05-13T14:13:21.971Z,22.00
2019-05-13T14:15:52.696Z,21.90
2019-05-13T14:18:26.342Z,21.50
2019-05-13T14:20:52.944Z,21.30
2019-05-13T14:23:21.521Z,21.80
2019-05-13T14:25:52.769Z,21.10
2019-05-13T14:28:22.966Z,19.90
2019-05-13T14:30:51.422Z,19.10
2019-05-13T14:33:20.211Z,18.20
2019-05-13T14:35:48.703Z,17.80
2019-05-13T14:38:17.162Z,16.80
2019-05-13T14:40:45.890Z,16.40
2019-05-13T14:43:16.787Z,17.10
2019-05-13T14:45:45.244Z,19.60
2019-05-13T14:48:13.761Z,21.60
2019-05-13T14:50:42.325Z,21.50
2019-05-13T14:53:10.848Z,23.20
2019-05-13T14:55:41.768Z,23.70
2019-05-13T14:58:09.778Z,25.50
2019-05-13T15:00:38.235Z,25.50
2019-05-13T15:03:06.727Z,25.20
2019-05-13T15:05:35.173Z,25.20
2019-05-13T15:08:03.638Z,25.00
2019-05-13T15:10:32.132Z,23.90
2019-05-13T15:13:03.055Z,25.30
2019-05-13T15:15:31.692Z,25.90
2019-05-13T15:18:01.425Z,25.10
2019-05-13T15:20:32.863Z,24.80
2019-05-13T15:23:00.296Z,23.30
2019-05-13T15:25:31.271Z,21.10
2019-05-13T15:28:02.909Z,20.20
2019-05-13T15:30:31.558Z,19.20
2019-05-13T15:33:01.743Z,18.40
2019-05-13T15:35:32.223Z,18.10
2019-05-13T15:38:01.309Z,17.90
2019-05-13T15:40:33.158Z,18.70
2019-05-13T15:43:13.427Z,20.30
2019-05-13T15:45:39.116Z,21.60
2019-05-13T15:48:07.590Z,21.90
2019-05-13T15:50:37.636Z,22.90
2019-05-13T15:53:06.467Z,23.00
2019-05-13T15:55:38.079Z,24.50
2019-05-13T15:58:11.808Z,24.70
2019-05-13T16:00:41.957Z,24.80
2019-05-13T16:03:15.092Z,23.90
2019-05-13T16:05:43.949Z,22.10
2019-05-13T16:08:12.405Z,20.80
2019-05-13T16:10:41.946Z,19.70
2019-05-13T16:13:13.185Z,19.30
2019-05-13T16:15:42.566Z,18.80
2019-05-13T16:18:11.710Z,18.80
2019-05-13T16:20:45.498Z,19.20
2019-05-13T16:23:16.204Z,20.30
2019-05-13T16:25:44.765Z,20.00
2019-05-13T16:28:13.287Z,19.30
2019-05-13T16:30:42.115Z,20.00
2019-05-13T16:33:13.082Z,20.90
2019-05-13T16:35:42.503Z,21.80
2019-05-13T16:38:12.558Z,21.80
2019-05-13T16:40:42.322Z,22.00
2019-05-13T16:43:12.868Z,21.70
2019-05-13T16:45:42.283Z,21.20
2019-05-13T16:48:12.333Z,21.40
2019-05-13T16:50:42.816Z,21.80
2019-05-13T16:53:12.896Z,22.80
2019-05-13T16:55:41.735Z,21.60
2019-05-13T16:58:12.392Z,21.60
2019-05-13T17:00:44.758Z,21.20
2019-05-13T17:03:13.243Z,21.60
2019-05-13T17:05:47.291Z,21.30
2019-05-13T17:08:18.597Z,20.10
2019-05-13T17:10:48.755Z,19.70
2019-05-13T17:13:19.204Z,19.80
2019-05-13T17:15:48.079Z,20.10
2019-05-13T17:18:16.570Z,19.20
2019-05-13T17:20:45.065Z,18.30
2019-05-13T17:23:13.579Z,17.60
2019-05-13T17:25:42.425Z,17.40
2019-05-13T17:28:13.425Z,16.30
2019-05-13T17:30:43.425Z,16.10
2019-05-13T17:33:13.540Z,16.00
2019-05-13T17:35:41.995Z,16.10
2019-05-13T17:38:11.397Z,16.10
2019-05-13T17:40:42.062Z,15.80
2019-05-13T17:43:11.930Z,15.20
2019-05-13T17:45:41.718Z,15.10
2019-05-13T17:48:25.840Z,15.20
2019-05-13T17:50:44.236Z,15.60
2019-05-13T17:53:12.705Z,15.70
2019-05-13T17:55:44.261Z,15.70
2019-05-13T17:58:12.700Z,15.70
2019-05-13T18:00:41.585Z,15.50
2019-05-13T18:03:11.334Z,15.20
2019-05-13T18:05:41.920Z,15.00
2019-05-13T18:08:11.227Z,15.00
2019-05-13T18:10:42.001Z,15.00
2019-05-13T18:13:12.542Z,14.80
2019-05-13T18:15:40.530Z,14.70
2019-05-13T18:18:09.000Z,14.70
2019-05-13T18:20:41.415Z,14.70
2019-05-13T18:23:09.382Z,14.70
2019-05-13T18:25:37.891Z,14.70
2019-05-13T18:28:06.353Z,14.60
2019-05-13T18:30:34.795Z,14.70
2019-05-13T18:33:03.279Z,14.60
2019-05-13T18:35:31.725Z,14.70
2019-05-13T18:38:01.360Z,14.60
2019-05-13T18:40:31.513Z,14.60
2019-05-13T18:43:01.872Z,14.60
2019-05-13T18:45:30.810Z,14.50
2019-05-13T18:48:01.600Z,14.50
2019-05-13T18:50:31.349Z,14.50
2019-05-13T18:53:01.721Z,14.40
2019-05-13T18:55:29.927Z,14.40
2019-05-13T18:57:58.376Z,14.40
2019-05-13T19:00:26.832Z,14.40
2019-05-13T19:02:55.277Z,14.40
2019-05-13T19:05:25.042Z,14.30
2019-05-13T19:07:53.528Z,14.30
2019-05-13T19:10:23.230Z,14.20
2019-05-13T19:12:51.727Z,14.20
2019-05-13T19:15:21.253Z,13.80
2019-05-13T19:17:52.013Z,13.60
2019-05-13T19:20:21.936Z,13.40
2019-05-13T19:22:51.826Z,13.20
2019-05-13T19:25:20.378Z,13.00
2019-05-13T19:27:51.722Z,12.90
2019-05-13T19:30:21.267Z,12.60
2019-05-13T19:32:52.009Z,12.20
2019-05-13T19:35:21.819Z,12.10
2019-05-13T19:37:51.586Z,12.00
2019-05-13T19:40:24.830Z,11.80
2019-05-13T19:42:51.045Z,11.60
2019-05-13T19:45:24.566Z,11.50
2019-05-13T19:47:54.329Z,11.40
2019-05-13T19:50:22.801Z,11.30
2019-05-13T19:52:51.852Z,11.20
2019-05-13T19:55:22.573Z,11.10
2019-05-13T19:57:51.705Z,11.00
2019-05-13T20:00:24.574Z,11.00
2019-05-13T20:02:53.191Z,11.00
2019-05-13T20:05:23.165Z,10.90
2019-05-13T20:07:53.374Z,10.80
2019-05-13T20:10:21.821Z,10.80
2019-05-13T20:12:51.888Z,11.20
2019-05-13T20:15:22.138Z,11.40
2019-05-13T20:17:52.121Z,11.10
2019-05-13T20:20:21.300Z,10.70
2019-05-13T20:22:53.042Z,10.60
2019-05-13T20:25:31.044Z,10.50
2019-05-13T20:27:59.245Z,10.50
2019-05-13T20:30:31.276Z,10.00
2019-05-13T20:33:05.764Z,9.90
2019-05-13T20:35:34.243Z,10.10
2019-05-13T20:38:04.225Z,10.00
2019-05-13T20:40:34.259Z,9.80
2019-05-13T20:43:02.696Z,9.70
2019-05-13T20:45:32.685Z,9.70
2019-05-13T20:48:02.674Z,9.90
2019-05-13T20:50:32.648Z,9.90
2019-05-13T20:53:01.132Z,9.90
2019-05-13T20:55:32.140Z,10.40
2019-05-13T20:58:01.420Z,10.30
2019-05-13T21:00:31.668Z,10.70
2019-05-13T21:03:02.729Z,11.00
2019-05-13T21:05:32.065Z,11.00
2019-05-13T21:08:01.686Z,10.80
2019-05-13T21:10:31.507Z,10.70
2019-05-13T21:13:01.746Z,10.50
2019-05-13T21:15:31.693Z,10.70
2019-05-13T21:18:02.068Z,10.90
2019-05-13T21:20:32.094Z,11.00
2019-05-13T21:23:02.668Z,10.80
2019-05-13T21:25:34.180Z,10.70
2019-05-13T21:28:11.325Z,10.80
2019-05-13T21:30:41.879Z,10.90
2019-05-13T21:33:11.464Z,10.90
2019-05-13T21:35:41.883Z,10.90
2019-05-13T21:38:11.299Z,11.10
2019-05-13T21:40:44.494Z,10.70
2019-05-13T21:43:15.097Z,10.50
2019-05-13T21:45:43.581Z,10.30
2019-05-13T21:48:12.043Z,10.20
2019-05-13T21:50:44.806Z,10.30
2019-05-13T21:53:13.270Z,10.10
2019-05-13T21:55:41.796Z,10.10
2019-05-13T21:58:13.814Z,10.10
2019-05-13T22:00:43.037Z,10.20
2019-05-13T22:03:11.673Z,10.10
2019-05-13T22:05:41.747Z,10.20
2019-05-13T22:08:12.098Z,10.10
2019-05-13T22:10:41.583Z,10.50
2019-05-13T22:13:11.856Z,10.30
2019-05-13T22:15:41.625Z,10.30
2019-05-13T22:18:11.338Z,10.30
2019-05-13T22:20:49.709Z,10.50
2019-05-13T22:23:11.954Z,10.10
2019-05-13T22:25:43.355Z,10.00
2019-05-13T22:28:11.776Z,10.10
2019-05-13T22:30:41.171Z,10.20
2019-05-13T22:33:12.156Z,10.10
2019-05-13T22:35:41.597Z,10.10
2019-05-13T22:38:12.310Z,10.10
2019-05-13T22:40:41.988Z,10.00
2019-05-13T22:43:12.165Z,9.90
2019-05-13T22:45:41.946Z,9.60
2019-05-13T22:48:12.059Z,9.70
2019-05-13T22:50:42.976Z,9.60
2019-05-13T22:53:13.252Z,9.70
2019-05-13T22:55:41.977Z,9.50
2019-05-13T22:58:10.719Z,9.60
2019-05-13T23:00:39.165Z,9.50
2019-05-13T23:03:07.614Z,9.50
2019-05-13T23:05:36.075Z,9.40
2019-05-13T23:08:04.574Z,9.30
2019-05-13T23:10:33.080Z,9.10
2019-05-13T23:13:02.178Z,8.70
2019-05-13T23:15:30.862Z,8.70
2019-05-13T23:18:01.209Z,8.90
2019-05-13T23:20:31.563Z,8.90
2019-05-13T23:23:01.284Z,8.60
2019-05-13T23:25:31.859Z,8.50
2019-05-13T23:28:00.036Z,8.40
2019-05-13T23:30:28.483Z,8.50
2019-05-13T23:32:56.965Z,8.80
2019-05-13T23:35:25.428Z,8.90
2019-05-13T23:37:53.945Z,9.00
2019-05-13T23:40:22.456Z,9.00
2019-05-13T23:42:51.806Z,9.00
2019-05-13T23:45:21.853Z,9.00
2019-05-13T23:47:52.189Z,9.00
2019-05-13T23:50:21.550Z,8.90
2019-05-13T23:52:51.169Z,8.90
2019-05-13T23:55:19.800Z,8.90
2019-05-13T23:57:48.266Z,8.90
